Time;durP1;ratioP1;P1;durP2;ratioP2;P2;SDS_P1;SDS_P2;PMS_P1;PMS_P2;Temp;Humidity;BMP_temperature;BMP_pressure;BME280_temperature;BME280_humidity;BME280_pressure;Samples;Min_cycle;Max_cycle;Signal;HPM_P1;HPM_P2
2022/03/27 00:00:41;;;;;;;44.58;25.70;;;;;;;1.19;63.16;94334.56;5110716;28;20020;-44
2022/03/27 00:03:07;;;;;;;41.92;23.85;;;;;;;0.90;63.49;94309.28;5110345;28;20072;-43
2022/03/27 00:05:33;;;;;;;46.28;26.02;;;;;;;1.20;62.61;94332.59;5110409;28;20497;-44
2022/03/27 00:07:59;;;;;;;52.33;25.40;;;;;;;1.16;62.87;94332.78;5110257;28;20508;-43
2022/03/27 00:10:24;;;;;;;51.92;26.75;;;;;;;1.18;62.90;94327.63;5110295;28;20019;-44
2022/03/27 00:12:50;;;;;;;49.20;25.75;;;;;;;0.74;64.13;94334.91;5110545;28;20031;-43
2022/03/27 00:15:16;;;;;;;40.17;22.80;;;;;;;0.71;64.26;94335.88;5110614;28;20023;-45
2022/03/27 00:17:41;;;;;;;44.30;21.13;;;;;;;0.71;63.97;94333.16;5110163;28;20523;-43
2022/03/27 00:20:08;;;;;;;36.63;19.30;;;;;;;0.82;63.62;94327.19;5110469;28;20020;-45
2022/03/27 00:22:36;;;;;;;42.13;22.33;;;;;;;0.64;64.14;94322.63;5110188;28;20554;-44
2022/03/27 00:25:02;;;;;;;42.55;23.15;;;;;;;0.70;64.85;94313.38;5110206;28;20528;-44
2022/03/27 00:27:28;;;;;;;46.35;27.65;;;;;;;0.77;64.43;94315.72;5110174;28;20022;-45
2022/03/27 00:29:53;;;;;;;34.40;20.63;;;;;;;0.66;64.88;94315.50;5110149;28;20472;-44
2022/03/27 00:32:20;;;;;;;27.60;16.40;;;;;;;0.63;63.57;94312.94;5110087;28;20065;-44
2022/03/27 00:34:46;;;;;;;30.77;15.57;;;;;;;0.71;63.14;94309.41;5097181;28;20548;-43
2022/03/27 00:37:12;;;;;;;25.55;13.88;;;;;;;0.77;61.91;94310.28;5089663;28;21906;-43
2022/03/27 00:39:38;;;;;;;26.52;16.23;;;;;;;0.58;63.01;94298.06;5089668;28;20020;-43
2022/03/27 00:42:03;;;;;;;57.25;29.98;;;;;;;0.62;63.52;94298.63;5092761;28;20077;-43
2022/03/27 00:44:29;;;;;;;32.25;16.15;;;;;;;0.59;63.46;94296.84;5093409;28;20036;-43
2022/03/27 00:46:54;;;;;;;29.92;17.52;;;;;;;0.67;63.01;94297.97;5093635;28;20027;-44
2022/03/27 00:49:20;;;;;;;25.33;14.38;;;;;;;0.31;63.93;94298.22;5093602;28;20082;-43
2022/03/27 00:51:45;;;;;;;25.75;14.27;;;;;;;0.28;64.06;94293.72;5093574;28;20085;-44
2022/03/27 00:54:11;;;;;;;23.63;14.15;;;;;;;0.43;63.68;94291.06;5093247;28;20024;-44
2022/03/27 00:56:36;;;;;;;24.35;13.82;;;;;;;0.60;63.47;94294.88;5108555;28;20020;-44
2022/03/27 00:59:02;;;;;;;24.58;14.25;;;;;;;0.62;63.19;94292.44;5113725;28;20100;-44
2022/03/27 01:01:38;;;;;;;22.88;12.85;;;;;;;0.54;62.23;94288.59;5113769;28;20035;-44
2022/03/27 01:04:05;;;;;;;21.73;12.93;;;;;;;0.23;63.86;94296.31;5113743;28;20035;-45
2022/03/27 01:06:31;;;;;;;31.75;13.73;;;;;;;0.20;63.76;94291.78;5113374;27;20092;-43
2022/03/27 01:11:42;;;;;;;21.95;13.60;;;;;;;-0.20;65.57;94292.94;5113300;28;20095;-44
2022/03/27 01:14:09;;;;;;;29.33;14.93;;;;;;;-0.12;64.94;94285.19;5113487;28;20110;-43
2022/03/27 01:16:55;;;;;;;30.77;16.08;;;;;;;-0.02;65.09;94284.69;5113479;28;20080;-43
2022/03/27 01:19:21;;;;;;;31.90;18.77;;;;;;;0.00;65.11;94287.69;5113442;28;20031;-45
2022/03/27 01:21:47;;;;;;;29.02;15.73;;;;;;;-0.05;64.57;94288.34;5113350;28;20465;-44
2022/03/27 01:24:15;;;;;;;32.45;17.27;;;;;;;0.02;64.88;94287.25;5112993;28;20031;-43
2022/03/27 01:26:41;;;;;;;41.92;20.98;;;;;;;0.02;64.85;94291.91;5112952;28;20036;-44
2022/03/27 01:29:07;;;;;;;44.92;24.80;;;;;;;0.06;64.87;94295.97;5113195;28;20024;-43
2022/03/27 01:31:33;;;;;;;57.80;26.67;;;;;;;0.02;65.10;94287.25;5095742;27;20028;-43
2022/03/27 01:33:58;;;;;;;44.42;24.02;;;;;;;0.13;64.25;94292.16;5092506;28;20023;-43
2022/03/27 01:36:31;;;;;;;41.58;24.55;;;;;;;-0.03;64.73;94285.91;5093027;28;20444;-45
2022/03/27 01:38:57;;;;;;;42.03;22.92;;;;;;;-0.31;65.76;94289.94;5092573;28;20020;-44
2022/03/27 01:41:23;;;;;;;44.03;19.35;;;;;;;-0.28;65.62;94277.44;5091684;28;20100;-46
2022/03/27 01:43:49;;;;;;;27.13;15.57;;;;;;;-0.29;65.38;94281.34;5092241;28;20055;-44
2022/03/27 01:46:14;;;;;;;22.45;14.02;;;;;;;-0.29;64.72;94278.63;5092499;28;20050;-44
2022/03/27 01:48:40;;;;;;;28.52;16.00;;;;;;;-0.62;66.07;94284.03;5092492;28;20024;-43
2022/03/27 01:51:05;;;;;;;32.03;17.55;;;;;;;-0.73;66.91;94280.28;5091954;28;20027;-43
2022/03/27 01:53:31;;;;;;;34.28;17.50;;;;;;;-0.60;66.76;94278.13;5091669;28;20035;-43
2022/03/27 01:55:56;;;;;;;33.92;19.95;;;;;;;-0.57;67.01;94277.22;5101430;28;20047;-43
2022/03/27 01:58:22;;;;;;;30.83;18.95;;;;;;;-0.51;66.01;94276.16;5112205;28;20024;-43
2022/03/27 02:00:48;;;;;;;43.75;17.80;;;;;;;-0.93;66.75;94267.22;5112646;28;20019;-44
2022/03/27 02:03:13;;;;;;;41.30;19.02;;;;;;;-0.82;66.63;94279.09;5112268;28;20393;-43
2022/03/27 02:05:39;;;;;;;30.48;16.95;;;;;;;-0.78;66.86;94270.81;5112229;28;20073;-44
2022/03/27 02:08:05;;;;;;;29.45;16.30;;;;;;;-0.57;66.47;94274.50;5112414;27;20026;-43
2022/03/27 02:10:30;;;;;;;32.25;17.52;;;;;;;-0.71;66.57;94267.75;5112327;27;20287;-43
2022/03/27 02:12:56;;;;;;;33.17;18.45;;;;;;;-0.54;66.37;94268.91;5111227;28;20095;-43
2022/03/27 02:15:23;;;;;;;39.95;18.80;;;;;;;-0.29;65.33;94275.91;5112315;28;20604;-44
2022/03/27 02:17:49;;;;;;;34.83;18.92;;;;;;;-0.38;65.67;94278.66;5111899;28;20065;-44
2022/03/27 02:20:14;;;;;;;32.90;19.30;;;;;;;-0.45;65.57;94279.75;5111984;28;20051;-43
2022/03/27 02:22:40;;;;;;;31.42;16.23;;;;;;;-0.48;65.57;94283.38;5112092;28;20030;-44
2022/03/27 02:25:06;;;;;;;27.20;15.85;;;;;;;-0.45;65.06;94281.69;5112201;28;20043;-43
2022/03/27 02:27:32;;;;;;;29.90;14.90;;;;;;;-0.31;64.24;94281.81;5096817;28;20031;-43
2022/03/27 02:29:57;;;;;;;31.15;15.85;;;;;;;-0.52;64.74;94282.78;5091683;28;20398;-43
2022/03/27 02:32:22;;;;;;;29.98;15.95;;;;;;;-0.49;65.02;94287.28;5091269;28;20494;-43
2022/03/27 02:34:48;;;;;;;25.75;15.73;;;;;;;-0.55;65.49;94283.69;5091130;28;20039;-43
2022/03/27 02:37:14;;;;;;;29.70;16.20;;;;;;;-0.74;65.50;94284.22;5091442;28;20016;-44
2022/03/27 02:39:40;;;;;;;28.92;14.80;;;;;;;-0.81;66.12;94287.97;5091467;28;20096;-43
2022/03/27 02:42:06;;;;;;;23.95;12.57;;;;;;;-0.95;65.99;94285.88;5090557;28;20489;-43
2022/03/27 02:44:31;;;;;;;17.85;10.75;;;;;;;-0.80;64.82;94286.75;5091347;28;20165;-43
2022/03/27 02:46:57;;;;;;;21.77;11.30;;;;;;;-0.76;64.81;94290.09;5091356;28;20023;-43
2022/03/27 02:49:23;;;;;;;16.38;9.90;;;;;;;-0.80;64.87;94295.66;5091338;28;20012;-45
2022/03/27 02:51:48;;;;;;;19.92;12.48;;;;;;;-0.92;65.71;94298.53;5091252;28;20077;-44
2022/03/27 02:54:14;;;;;;;20.80;12.70;;;;;;;-1.00;66.35;94295.41;5090973;28;20426;-44
2022/03/27 02:56:39;;;;;;;24.10;14.35;;;;;;;-1.24;66.71;94272.84;5106633;28;20047;-45
2022/03/27 02:59:05;;;;;;;21.10;13.57;;;;;;;-1.06;67.07;94294.50;5111449;28;20016;-43
2022/03/27 03:01:31;;;;;;;28.40;15.10;;;;;;;-1.21;67.68;94299.00;5111177;28;20498;-43
2022/03/27 03:03:57;;;;;;;30.63;15.57;;;;;;;-1.08;67.18;94296.13;5111056;28;20023;-43
2022/03/27 03:06:26;;;;;;;26.70;15.20;;;;;;;-1.08;67.82;94298.84;5111369;28;20436;-43
2022/03/27 03:08:51;;;;;;;27.38;15.35;;;;;;;-1.13;67.53;94305.66;5111001;28;20011;-44
2022/03/27 03:11:20;;;;;;;28.92;14.52;;;;;;;-0.97;67.29;94307.28;5111274;28;20028;-43
2022/03/27 03:13:47;;;;;;;28.67;15.93;;;;;;;-1.08;67.13;94302.31;5110993;28;20080;-43
2022/03/27 03:16:14;;;;;;;25.20;13.75;;;;;;;-1.48;67.77;94303.69;5111163;28;20496;-43
2022/03/27 03:18:40;;;;;;;23.38;15.48;;;;;;;-1.56;68.25;94298.56;5109733;28;20077;-44
2022/03/27 03:21:06;;;;;;;32.78;16.75;;;;;;;-1.61;68.21;94306.53;5109656;28;20522;-43
2022/03/27 03:23:32;;;;;;;30.05;14.57;;;;;;;-1.56;68.76;94314.81;5098145;28;20032;-43
2022/03/27 03:25:58;;;;;;;22.88;12.75;;;;;;;-1.52;67.79;94277.50;5090719;28;20020;-43
2022/03/27 03:28:23;;;;;;;26.33;13.93;;;;;;;-1.34;67.40;94306.53;5090348;28;20073;-44
2022/03/27 03:30:49;;;;;;;21.38;12.38;;;;;;;-1.16;66.92;94311.22;5090389;28;20024;-42
2022/03/27 03:33:14;;;;;;;17.92;10.63;;;;;;;-1.27;66.73;94305.50;5090324;28;20026;-43
2022/03/27 03:35:41;;;;;;;17.42;10.35;;;;;;;-1.40;66.18;94302.16;5090169;28;20127;-45
2022/03/27 03:38:06;;;;;;;16.42;10.10;;;;;;;-1.18;65.31;94311.66;5090210;28;20024;-43
2022/03/27 03:40:32;;;;;;;22.58;11.75;;;;;;;-1.25;65.75;94313.91;5096724;28;20054;-43
2022/03/27 03:42:57;;;;;;;21.88;13.40;;;;;;;-1.31;65.71;94296.75;5110615;28;20026;-43
2022/03/27 03:45:23;;;;;;;33.15;16.20;;;;;;;-1.20;65.69;94316.78;5110793;28;20031;-43
2022/03/27 03:47:49;;;;;;;32.40;16.63;;;;;;;-1.46;66.41;94306.69;5110833;28;20664;-43
2022/03/27 03:50:15;;;;;;;39.92;17.45;;;;;;;-1.25;66.16;94317.38;5110864;28;20023;-44
2022/03/27 03:52:40;;;;;;;36.00;17.90;;;;;;;-1.48;66.74;94315.28;5110772;28;20507;-43
2022/03/27 03:55:06;;;;;;;37.08;18.70;;;;;;;-1.46;67.62;94318.28;5108128;28;20552;-45
2022/03/27 03:57:32;;;;;;;30.33;16.35;;;;;;;-1.54;66.98;94314.38;5090294;28;20039;-45
2022/03/27 03:59:58;;;;;;;37.33;16.75;;;;;;;-1.54;66.82;94314.38;5088835;28;20051;-46
2022/03/27 04:02:23;;;;;;;28.65;14.82;;;;;;;-1.56;67.23;94314.06;5090076;28;20035;-43
2022/03/27 04:04:49;;;;;;;21.80;11.93;;;;;;;-1.85;66.76;94321.81;5089999;28;20024;-44
2022/03/27 04:07:14;;;;;;;27.00;11.60;;;;;;;-1.66;65.81;94320.66;5089151;28;20017;-45
2022/03/27 04:09:40;;;;;;;27.90;11.77;;;;;;;-1.72;66.43;94323.22;5088703;28;20024;-45
2022/03/27 04:12:05;;;;;;;18.15;10.82;;;;;;;-1.60;66.48;94321.56;5108844;28;20019;-45
2022/03/27 04:14:34;;;;;;;24.88;11.90;;;;;;;-1.45;65.58;94324.47;5110604;28;20015;-43
2022/03/27 04:17:00;;;;;;;22.83;11.70;;;;;;;-1.52;66.28;94331.66;5114183;28;20051;-44
2022/03/27 04:19:25;;;;;;;24.95;13.23;;;;;;;-1.73;66.71;94308.16;5114297;28;20038;-44
2022/03/27 04:21:51;;;;;;;32.17;14.48;;;;;;;-1.75;67.29;94332.22;5114269;28;20090;-44
2022/03/27 04:24:16;;;;;;;26.35;14.57;;;;;;;-1.58;66.93;94336.16;5114576;28;20035;-44
2022/03/27 04:26:42;;;;;;;28.10;16.90;;;;;;;-1.74;67.84;94344.56;5114130;28;20030;-45
2022/03/27 04:29:07;;;;;;;27.30;14.48;;;;;;;-1.70;67.48;94345.19;5114421;28;20032;-45
2022/03/27 04:31:33;;;;;;;33.60;16.48;;;;;;;-1.59;67.21;94342.78;5114404;28;20076;-43
2022/03/27 04:33:59;;;;;;;38.03;18.40;;;;;;;-1.92;68.23;94346.47;5114171;28;20031;-43
2022/03/27 04:36:25;;;;;;;34.92;17.27;;;;;;;-1.77;67.94;94352.81;5113007;28;20546;-44
2022/03/27 04:38:50;;;;;;;25.25;12.85;;;;;;;-1.73;67.68;94350.72;5113850;28;20055;-44
2022/03/27 04:41:16;;;;;;;21.85;13.95;;;;;;;-1.72;67.40;94350.28;5100608;28;20024;-43
2022/03/27 04:43:43;;;;;;;28.73;14.15;;;;;;;-1.79;67.05;94364.09;5093801;28;20016;-43
2022/03/27 04:46:08;;;;;;;21.98;11.63;;;;;;;-1.80;66.67;94362.56;5093806;28;20469;-44
2022/03/27 04:48:34;;;;;;;24.67;11.82;;;;;;;-1.78;66.14;94367.56;5093725;28;20016;-43
2022/03/27 04:50:59;;;;;;;25.25;12.68;;;;;;;-1.51;65.58;94370.31;5093290;28;20445;-43
2022/03/27 04:53:25;;;;;;;22.48;12.38;;;;;;;-1.57;65.22;94370.16;5093252;28;20020;-45
2022/03/27 04:55:50;;;;;;;24.38;14.45;;;;;;;-1.40;65.74;94367.16;5101752;28;20072;-43
2022/03/27 04:58:17;;;;;;;25.45;14.05;;;;;;;-1.56;65.90;94366.25;5113578;28;20034;-45
2022/03/27 05:00:42;;;;;;;29.33;13.63;;;;;;;-1.45;65.73;94368.53;5113535;28;20115;-45
2022/03/27 05:03:07;;;;;;;30.52;13.82;;;;;;;-1.31;66.03;94369.91;5113446;28;20066;-45
2022/03/27 05:05:33;;;;;;;25.83;15.30;;;;;;;-1.27;65.26;94370.50;5113418;28;20026;-44
2022/03/27 05:07:59;;;;;;;33.42;18.58;;;;;;;-1.20;66.21;94372.91;5113377;28;20076;-45
2022/03/27 05:10:24;;;;;;;40.40;19.90;;;;;;;-1.14;66.24;94373.81;5113218;27;20019;-44
2022/03/27 05:12:50;;;;;;;82.85;31.13;;;;;;;-0.97;65.98;94369.63;5113575;27;20023;-45
2022/03/27 05:15:15;;;;;;;196.85;65.90;;;;;;;-0.84;66.21;94372.91;5106826;28;20051;-46
2022/03/27 05:17:59;;;;;;;214.55;72.82;;;;;;;-0.78;65.96;94371.88;5092973;28;20099;-46
2022/03/27 05:20:27;;;;;;;714.42;300.08;;;;;;;-0.71;65.40;94370.06;5093040;28;20028;-47
2022/03/27 05:22:53;;;;;;;683.47;290.25;;;;;;;-0.69;65.00;94370.38;5092923;28;20107;-44
2022/03/27 05:25:19;;;;;;;550.60;208.73;;;;;;;-0.38;64.50;94379.78;5093037;28;20136;-45
2022/03/27 05:27:50;;;;;;;519.53;205.50;;;;;;;-0.10;64.26;94381.22;5092530;28;20569;-43
2022/03/27 05:30:19;;;;;;;452.60;167.25;;;;;;;-0.01;64.41;94385.88;5092606;28;20115;-46
2022/03/27 05:32:45;;;;;;;413.25;152.73;;;;;;;0.14;64.02;94381.28;5092513;28;20034;-45
2022/03/27 05:35:11;;;;;;;409.58;147.77;;;;;;;0.38;63.89;94384.81;5092340;28;20131;-44
2022/03/27 05:37:41;;;;;;;349.20;118.40;;;;;;;0.78;62.42;94381.69;5092399;28;20478;-44
2022/03/27 05:40:09;;;;;;;250.70;90.70;;;;;;;1.27;62.02;94381.19;5092078;28;20023;-46
2022/03/27 05:42:35;;;;;;;163.68;64.03;;;;;;;1.55;61.53;94385.19;5092710;28;20095;-46
2022/03/27 05:45:02;;;;;;;95.80;46.90;;;;;;;1.88;61.19;94385.78;5092532;28;20417;-44
2022/03/27 05:47:28;;;;;;;94.93;43.05;;;;;;;2.38;59.05;94375.66;5092586;28;20019;-45
2022/03/27 05:49:53;;;;;;;124.63;49.70;;;;;;;3.02;58.24;94380.97;5092415;28;20046;-45
2022/03/27 05:52:20;;;;;;;139.43;69.15;;;;;;;3.72;56.34;94384.25;5092393;28;20378;-46
2022/03/27 05:54:45;;;;;;;147.02;71.32;;;;;;;4.19;54.42;94391.13;5092409;28;20412;-44
2022/03/27 05:57:10;;;;;;;122.57;63.83;;;;;;;4.53;53.32;94399.09;5111978;28;20020;-44
2022/03/27 05:59:36;;;;;;;149.38;76.35;;;;;;;4.56;53.64;94398.16;5112683;28;20030;-44
2022/03/27 06:02:01;;;;;;;130.82;67.55;;;;;;;4.66;53.45;94395.22;5112500;28;20416;-44
2022/03/27 06:04:27;;;;;;;102.97;55.63;;;;;;;4.86;54.04;94398.56;5112602;28;20024;-44
2022/03/27 06:06:52;;;;;;;123.13;62.90;;;;;;;5.45;53.60;94393.13;5112493;28;20015;-44
2022/03/27 06:09:18;;;;;;;111.47;58.17;;;;;;;5.42;52.85;94387.88;5112485;28;20012;-46
2022/03/27 06:11:43;;;;;;;62.08;32.42;;;;;;;6.15;53.37;94381.38;5104022;28;20518;-44
2022/03/27 06:14:09;;;;;;;52.88;30.67;;;;;;;7.23;50.56;94378.25;5091678;28;20081;-44
2022/03/27 06:16:34;;;;;;;64.03;30.50;;;;;;;8.31;48.29;94379.44;5091667;28;20155;-47
2022/03/27 06:19:00;;;;;;;84.75;43.35;;;;;;;9.35;46.04;94380.97;5091819;28;20039;-44
2022/03/27 06:21:25;;;;;;;96.95;49.58;;;;;;;10.31;42.98;94383.50;5091550;28;20042;-46
2022/03/27 06:23:51;;;;;;;99.47;54.85;;;;;;;10.89;41.70;94383.59;5091507;28;20020;-43
2022/03/27 06:26:17;;;;;;;99.90;58.38;;;;;;;11.53;40.15;94370.34;5091498;28;20099;-45
2022/03/27 06:28:42;;;;;;;103.75;55.95;;;;;;;12.52;38.94;94383.31;5090177;28;20118;-45
2022/03/27 06:31:08;;;;;;;80.55;46.25;;;;;;;13.43;36.55;94377.28;5091415;28;20031;-43
2022/03/27 06:33:33;;;;;;;85.60;46.83;;;;;;;13.83;34.16;94377.69;5091303;28;20031;-45
2022/03/27 06:36:01;;;;;;;324.83;159.55;;;;;;;13.11;37.18;94365.78;5091133;28;20132;-43
2022/03/27 06:38:27;;;;;;;162.80;81.15;;;;;;;14.44;36.29;94371.09;5091158;28;20039;-44
2022/03/27 06:40:52;;;;;;;100.05;55.63;;;;;;;15.79;34.24;94357.75;5090884;28;20020;-46
2022/03/27 06:43:18;;;;;;;44.80;25.02;;;;;;;16.93;31.69;94366.34;5091576;28;20016;-43
2022/03/27 06:45:44;;;;;;;53.58;29.55;;;;;;;16.85;31.67;94363.59;5091088;28;20070;-44
2022/03/27 06:48:10;;;;;;;52.47;25.10;;;;;;;18.01;30.29;94361.47;5091425;28;20024;-46
2022/03/27 06:50:35;;;;;;;27.35;12.00;;;;;;;18.07;27.47;94364.75;5091043;28;20016;-44
2022/03/27 06:53:00;;;;;;;15.77;10.07;;;;;;;18.73;26.46;94369.31;5089761;28;20016;-43
2022/03/27 06:55:27;;;;;;;22.05;13.07;;;;;;;17.81;27.60;94361.84;5096446;28;20023;-44
2022/03/27 06:57:53;;;;;;;23.25;13.23;;;;;;;18.45;25.59;94360.78;5111136;28;20024;-43
2022/03/27 07:03:03;;;;;;;13.95;9.07;;;;;;;17.92;26.20;94362.13;5111185;28;20030;-42
2022/03/27 07:05:44;;;;;;;15.45;9.40;;;;;;;18.47;26.62;94369.31;5111136;28;20450;-45
2022/03/27 07:08:14;;;;;;;18.05;8.75;;;;;;;19.27;27.39;94367.22;5110970;28;20031;-47
2022/03/27 07:10:41;;;;;;;11.95;8.25;;;;;;;19.39;25.40;94356.97;5103567;28;20026;-43
2022/03/27 07:13:09;;;;;;;12.77;7.93;;;;;;;19.82;23.33;94355.28;5091013;28;20089;-43
2022/03/27 07:15:38;;;;;;;18.38;7.43;;;;;;;20.89;21.75;94341.34;5090639;28;20099;-44
2022/03/27 07:18:05;;;;;;;22.50;7.70;;;;;;;20.91;21.06;94346.34;5090474;28;20020;-42
2022/03/27 07:20:32;;;;;;;14.35;7.60;;;;;;;22.30;20.56;94350.19;5089337;28;20042;-44
2022/03/27 07:23:01;;;;;;;19.45;8.13;;;;;;;22.43;20.19;94349.63;5090554;28;20024;-44
2022/03/27 07:25:28;;;;;;;27.83;8.65;;;;;;;23.18;19.46;94355.09;5090831;28;20059;-44
2022/03/27 07:27:54;;;;;;;20.05;9.68;;;;;;;23.84;18.67;94362.00;5090377;28;20020;-44
2022/03/27 07:30:20;;;;;;;14.65;8.90;;;;;;;24.06;18.19;94363.31;5090739;28;20031;-45
2022/03/27 07:32:47;;;;;;;14.77;8.05;;;;;;;24.61;17.88;94357.97;5090405;28;20028;-43
2022/03/27 07:35:17;;;;;;;14.30;7.47;;;;;;;25.11;17.08;94360.81;5090118;28;20055;-43
2022/03/27 07:37:44;;;;;;;13.20;7.38;;;;;;;26.08;16.41;94363.88;5090527;28;20024;-41
2022/03/27 07:40:10;;;;;;;14.02;8.73;;;;;;;25.96;15.98;94354.00;5090066;28;20027;-44
2022/03/27 07:42:47;;;;;;;19.95;7.78;;;;;;;26.24;16.00;94353.38;5090324;28;20068;-43
2022/03/27 07:45:14;;;;;;;11.25;7.13;;;;;;;26.01;15.69;94341.53;5090587;28;20527;-43
2022/03/27 07:47:40;;;;;;;10.82;7.07;;;;;;;25.78;15.88;94350.97;5090491;28;20153;-45
2022/03/27 07:50:07;;;;;;;20.02;7.55;;;;;;;25.82;16.03;94353.28;5091890;28;20081;-42
2022/03/27 07:52:34;;;;;;;12.45;7.15;;;;;;;26.06;15.67;94358.09;5094675;28;20032;-43
2022/03/27 07:55:00;;;;;;;10.88;6.30;;;;;;;26.65;15.39;94347.59;5096008;28;20069;-41
2022/03/27 07:57:26;;;;;;;13.02;6.78;;;;;;;26.97;14.72;94352.00;5114922;28;20107;-41
2022/03/27 07:59:51;;;;;;;11.93;7.32;;;;;;;26.74;14.90;94335.31;5114632;28;20110;-43
2022/03/27 08:02:18;;;;;;;12.85;6.85;;;;;;;27.18;14.61;94350.13;5114642;28;20016;-43
2022/03/27 08:04:45;;;;;;;15.63;7.20;;;;;;;27.49;14.84;94347.31;5114459;28;20028;-42
2022/03/27 08:07:10;;;;;;;29.98;7.93;;;;;;;27.01;15.13;94346.53;5113720;28;20034;-43
2022/03/27 08:09:36;;;;;;;43.90;9.88;;;;;;;26.97;15.11;94351.28;5114450;28;20401;-44
2022/03/27 08:12:02;;;;;;;17.50;7.93;;;;;;;27.56;15.15;94349.06;5095062;27;20051;-43
2022/03/27 08:14:31;;;;;;;14.43;7.88;;;;;;;27.76;14.47;94347.84;5094389;28;20166;-44
2022/03/27 08:16:57;;;;;;;15.45;8.02;;;;;;;28.17;14.04;94339.03;5094288;28;20076;-44
2022/03/27 08:19:23;;;;;;;33.88;8.88;;;;;;;28.34;13.86;94346.84;5094156;28;20081;-42
2022/03/27 08:21:49;;;;;;;79.60;11.20;;;;;;;28.18;14.08;94342.59;5093896;28;20450;-44
2022/03/27 08:24:14;;;;;;;11.50;7.32;;;;;;;28.68;13.01;94335.47;5094149;28;20031;-44
2022/03/27 08:29:31;;;;;;;14.55;6.82;;;;;;;28.66;13.83;94341.78;5093766;28;20120;-43
2022/03/27 08:32:01;;;;;;;12.18;8.07;;;;;;;28.73;13.96;94334.25;5093769;28;20051;-43
2022/03/27 08:34:28;;;;;;;11.80;7.97;;;;;;;28.34;13.73;94341.19;5093698;28;20108;-43
2022/03/27 08:36:55;;;;;;;18.33;7.93;;;;;;;28.27;14.18;94335.88;5093872;28;20032;-43
2022/03/27 08:39:21;;;;;;;10.98;8.50;;;;;;;28.49;14.49;94325.44;5093792;28;20158;-42
2022/03/27 08:41:48;;;;;;;13.65;8.10;;;;;;;29.03;13.12;94332.59;5092865;28;20028;-43
2022/03/27 08:44:18;;;;;;;17.95;10.23;;;;;;;29.03;13.89;94327.66;5093433;28;20027;-44
2022/03/27 08:46:44;;;;;;;15.38;8.10;;;;;;;28.19;14.29;94336.28;5093705;28;20401;-42
2022/03/27 08:49:19;;;;;;;11.77;8.57;;;;;;;28.92;13.24;94337.16;5093723;28;20484;-43
2022/03/27 08:51:56;;;;;;;27.20;10.23;;;;;;;29.36;13.47;94328.94;5093619;28;20031;-43
2022/03/27 08:54:26;;;;;;;11.93;7.95;;;;;;;29.00;13.77;94325.41;5093342;28;20039;-45
2022/03/27 08:57:33;;;;;;;11.70;7.70;;;;;;;28.60;13.78;94315.25;5110544;28;20019;-42
2022/03/27 08:59:59;;;;;;;17.88;8.93;;;;;;;28.47;14.13;94317.56;5113424;28;20046;-44
2022/03/27 09:02:25;;;;;;;13.02;8.18;;;;;;;29.28;12.84;94320.09;5111602;28;20088;-44
2022/03/27 09:04:55;;;;;;;19.35;7.53;;;;;;;28.54;13.70;94330.63;5113741;28;20027;-42
2022/03/27 09:07:24;;;;;;;12.10;7.20;;;;;;;28.84;13.14;94325.47;5113504;28;20036;-44
2022/03/27 09:09:51;;;;;;;17.45;8.23;;;;;;;28.65;13.16;94322.56;5112914;28;20027;-43
2022/03/27 09:12:18;;;;;;;14.27;7.88;;;;;;;28.54;13.25;94330.63;5093242;28;20032;-46
2022/03/27 09:14:44;;;;;;;13.88;7.57;;;;;;;28.86;13.41;94333.34;5092854;28;20114;-41
2022/03/27 09:17:09;;;;;;;11.13;8.43;;;;;;;27.80;13.63;94321.78;5093177;28;20061;-43
2022/03/27 09:19:46;;;;;;;22.98;8.55;;;;;;;27.65;14.09;94322.53;5092997;28;20028;-45
2022/03/27 09:22:14;;;;;;;21.33;9.13;;;;;;;28.28;14.16;94311.78;5093084;28;20028;-44
2022/03/27 09:24:40;;;;;;;10.85;7.97;;;;;;;28.10;14.07;94313.84;5093083;28;20052;-42
2022/03/27 09:27:06;;;;;;;14.60;7.85;;;;;;;28.38;13.63;94327.13;5092616;28;20032;-43
2022/03/27 09:29:59;;;;;;;18.40;8.57;;;;;;;29.28;12.93;94317.25;5092931;28;20073;-44
2022/03/27 09:32:30;;;;;;;199.18;20.23;;;;;;;28.38;12.89;94303.66;5092567;28;20649;-42
2022/03/27 09:35:02;;;;;;;11.02;8.13;;;;;;;28.56;12.85;94309.38;5092230;28;20056;-41
2022/03/27 09:37:34;;;;;;;18.20;8.65;;;;;;;28.50;12.77;94304.91;5092721;28;20028;-41
2022/03/27 10:01:15;;;;;;;16.98;8.10;;;;;;;28.83;12.01;94289.16;5128417;27;20607;-45
2022/03/27 10:04:16;;;;;;;17.27;8.25;;;;;;;28.72;12.33;94276.66;5128401;27;20038;-46
2022/03/27 10:06:42;;;;;;;16.08;9.10;;;;;;;29.13;12.46;94270.44;5123435;27;20028;-45
2022/03/27 10:09:12;;;;;;;18.60;9.57;;;;;;;28.43;12.13;94265.53;5107634;28;20020;-46
2022/03/27 10:11:40;;;;;;;22.15;9.35;;;;;;;28.53;12.17;94280.88;5107984;28;20089;-43
2022/03/27 10:14:06;;;;;;;12.38;8.55;;;;;;;28.68;11.88;94270.81;5106792;28;20020;-45
2022/03/27 10:16:46;;;;;;;15.00;9.32;;;;;;;28.79;12.12;94280.47;5107918;28;20116;-46
2022/03/27 10:19:27;;;;;;;20.27;9.20;;;;;;;29.18;12.21;94274.91;5106849;28;20024;-46
2022/03/27 10:21:54;;;;;;;14.90;9.23;;;;;;;29.94;11.65;94260.66;5107930;28;20106;-44
2022/03/27 10:24:19;;;;;;;15.20;9.00;;;;;;;29.40;11.43;94261.53;5106206;28;20024;-46
2022/03/27 10:26:45;;;;;;;13.65;9.07;;;;;;;29.89;11.58;94264.75;5106607;28;20024;-44
2022/03/27 10:29:12;;;;;;;17.13;9.38;;;;;;;29.86;11.31;94263.22;5107596;28;20511;-44
2022/03/27 10:31:38;;;;;;;17.60;8.55;;;;;;;29.92;12.01;94257.00;5107314;28;20504;-45
2022/03/27 10:34:07;;;;;;;19.25;8.90;;;;;;;29.97;11.87;94265.00;5107297;28;20023;-44
2022/03/27 10:36:46;;;;;;;;;;;;;;;29.90;11.45;94265.47;5106951;28;20474;-44
2022/03/27 10:39:25;;;;;;;19.38;11.10;;;;;;;29.11;11.79;94276.78;5106358;28;20380;-45
2022/03/27 10:42:11;;;;;;;12.00;9.07;;;;;;;29.46;11.49;94270.28;5107239;28;20024;-46
2022/03/27 10:44:57;;;;;;;17.15;8.90;;;;;;;29.43;11.53;94259.50;5105949;28;20032;-44
2022/03/27 10:47:24;;;;;;;14.93;9.60;;;;;;;29.65;10.76;94251.75;5105965;28;20020;-46
2022/03/27 10:50:02;;;;;;;16.25;10.10;;;;;;;29.49;12.19;94268.97;5107262;28;20027;-44
2022/03/27 10:52:36;;;;;;;17.93;8.50;;;;;;;29.84;11.22;94263.13;5107281;28;20136;-45
2022/03/27 10:55:15;;;;;;;15.73;9.30;;;;;;;29.85;10.90;94264.59;5106980;28;20020;-45
2022/03/27 10:57:51;;;;;;;20.13;9.65;;;;;;;30.18;11.30;94257.16;5106499;28;20146;-46
2022/03/27 11:00:42;;;;;;;12.90;8.88;;;;;;;30.22;10.62;94251.59;5103714;28;20043;-45
2022/03/27 11:03:07;;;;;;;12.70;9.90;;;;;;;30.05;11.03;94247.50;5093145;28;20470;-47
2022/03/27 11:05:35;;;;;;;21.77;10.30;;;;;;;30.59;10.64;94240.75;5093467;28;20031;-46
2022/03/27 11:08:19;;;;;;;17.42;10.57;;;;;;;30.75;10.19;94234.09;5093467;28;20409;-44
2022/03/27 11:10:50;;;;;;;12.60;9.57;;;;;;;30.11;10.78;94232.72;5092998;28;20032;-46
2022/03/27 11:13:39;;;;;;;16.00;10.32;;;;;;;29.96;10.54;94225.81;5093279;28;20089;-45
2022/03/27 11:16:14;;;;;;;15.33;9.93;;;;;;;29.47;11.82;94220.53;5092837;28;20420;-45
2022/03/27 11:18:41;;;;;;;14.45;9.80;;;;;;;29.76;10.88;94220.16;5092907;28;20511;-45
2022/03/27 11:21:08;;;;;;;12.07;8.95;;;;;;;29.54;10.75;94219.34;5092811;28;20115;-45
2022/03/27 11:23:37;;;;;;;19.45;10.40;;;;;;;28.85;11.74;94230.28;5091535;28;20547;-46
2022/03/27 11:26:18;;;;;;;20.38;9.60;;;;;;;29.24;11.86;94229.63;5093134;28;20028;-46
2022/03/27 11:28:49;;;;;;;11.15;9.10;;;;;;;29.52;10.67;94210.75;5093000;28;20038;-45
2022/03/27 11:31:17;;;;;;;21.65;9.48;;;;;;;28.64;11.55;94204.56;5092664;28;20043;-42
2022/03/27 11:33:45;;;;;;;19.40;9.77;;;;;;;27.38;12.53;94212.84;5092996;28;20405;-45
2022/03/27 11:36:14;;;;;;;15.27;9.38;;;;;;;27.61;12.50;94194.69;5092858;28;20513;-43
2022/03/27 11:38:52;;;;;;;17.60;10.07;;;;;;;27.12;12.51;94203.16;5092512;28;20035;-45
2022/03/27 11:41:43;;;;;;;13.80;9.27;;;;;;;26.27;13.06;94195.66;5092670;28;20392;-44
2022/03/27 11:47:22;;;;;;;12.75;7.97;;;;;;;26.25;12.78;94204.03;5092680;28;20169;-48
2022/03/27 11:49:50;;;;;;;14.80;8.93;;;;;;;26.65;12.99;94188.22;5092622;28;20024;-43
2022/03/27 11:52:20;;;;;;;13.27;8.98;;;;;;;26.07;13.12;94203.16;5092506;28;20477;-45
2022/03/27 11:54:48;;;;;;;16.67;9.27;;;;;;;25.86;14.28;94192.94;5102325;28;20038;-45
2022/03/27 11:57:16;;;;;;;14.45;9.20;;;;;;;26.22;13.81;94194.00;5112580;28;20115;-44